Time;durP1;ratioP1;P1;durP2;ratioP2;P2;SDS_P1;SDS_P2;PMS_P1;PMS_P2;Temp;Humidity;BMP_temperature;BMP_pressure;BME280_temperature;BME280_humidity;BME280_pressure;Samples;Min_cycle;Max_cycle;Signal;HPM_P1;HPM_P2
2021/11/15 00:02:00;;;;;;;3.13;2.92;;;;;;;;;;4972482;28;20129;-74
2021/11/15 00:04:26;;;;;;;3.53;3.25;;;;;;;;;;4972997;28;20534;-73
2021/11/15 00:06:52;;;;;;;3.50;3.28;;;;;;;;;;4971750;28;20038;-72
2021/11/15 00:09:18;;;;;;;3.78;3.47;;;;;;;;;;4955325;28;20121;-73
2021/11/15 00:11:44;;;;;;;3.28;3.17;;;;;;;;;;4971907;28;20579;-73
2021/11/15 00:14:09;;;;;;;3.13;2.92;;;;;;;;;;4970326;28;20122;-73
2021/11/15 00:16:35;;;;;;;3.28;3.05;;;;;;;;;;4971515;28;20575;-73
2021/11/15 00:19:01;;;;;;;4.22;4.03;;;;;;;;;;4972195;28;20077;-73
2021/11/15 00:21:27;;;;;;;3.67;3.47;;;;;;;;;;4971919;28;20038;-74
2021/11/15 00:23:52;;;;;;;2.90;2.80;;;;;;;;;;4972061;28;20045;-72
2021/11/15 00:26:18;;;;;;;3.70;3.50;;;;;;;;;;4972683;28;20105;-74
2021/11/15 00:28:44;;;;;;;3.20;3.00;;;;;;;;;;4972344;28;20043;-73
2021/11/15 00:31:10;;;;;;;3.53;3.40;;;;;;;;;;4971729;28;20038;-73
2021/11/15 00:33:35;;;;;;;3.20;3.03;;;;;;;;;;4954873;28;20054;-73
2021/11/15 00:36:01;;;;;;;3.20;3.10;;;;;;;;;;4969876;28;20070;-73
2021/11/15 00:38:26;;;;;;;3.90;3.60;;;;;;;;;;4970168;28;20106;-73
2021/11/15 00:40:52;;;;;;;3.08;2.97;;;;;;;;;;4971841;28;20123;-74
2021/11/15 00:43:18;;;;;;;2.97;2.83;;;;;;;;;;4971833;28;20444;-73
2021/11/15 00:45:43;;;;;;;2.95;2.85;;;;;;;;;;4964173;28;20126;-72
2021/11/15 00:48:09;;;;;;;3.85;3.65;;;;;;;;;;4951914;29;20465;-72
2021/11/15 00:50:37;;;;;;;3.55;3.33;;;;;;;;;;4952807;29;20039;-73
2021/11/15 00:53:02;;;;;;;3.08;2.88;;;;;;;;;;4934981;29;20055;-72
2021/11/15 00:55:28;;;;;;;3.15;2.95;;;;;;;;;;4962276;28;20121;-73
2021/11/15 00:57:55;;;;;;;3.95;3.25;;;;;;;;;;4969415;28;20031;-73
2021/11/15 01:00:23;;;;;;;3.40;3.00;;;;;;;;;;4971127;28;20054;-73
2021/11/15 01:02:50;;;;;;;3.28;3.15;;;;;;;;;;4971720;28;20062;-73
2021/11/15 01:05:16;;;;;;;3.35;3.15;;;;;;;;;;4971967;28;20050;-72
2021/11/15 01:07:42;;;;;;;3.65;3.10;;;;;;;;;;4971510;28;20039;-72
2021/11/15 01:10:10;;;;;;;4.72;3.13;;;;;;;;;;4971537;28;20936;-74
2021/11/15 01:12:36;;;;;;;2.90;2.80;;;;;;;;;;4971653;28;20038;-73
2021/11/15 01:15:03;;;;;;;6.35;3.22;;;;;;;;;;4970693;28;20047;-73
2021/11/15 01:17:28;;;;;;;3.58;3.22;;;;;;;;;;4971491;28;20117;-74
2021/11/15 01:19:54;;;;;;;3.58;3.30;;;;;;;;;;4969432;28;20034;-72
2021/11/15 01:22:19;;;;;;;3.13;3.03;;;;;;;;;;4970575;28;20193;-74
2021/11/15 01:24:45;;;;;;;3.92;3.63;;;;;;;;;;4971978;28;20045;-75
2021/11/15 01:27:10;;;;;;;3.53;3.33;;;;;;;;;;4972181;28;20481;-74
2021/11/15 01:29:36;;;;;;;3.50;3.20;;;;;;;;;;4974511;28;20046;-73
2021/11/15 01:32:02;;;;;;;4.65;3.33;;;;;;;;;;4975168;28;20046;-73
2021/11/15 01:34:29;;;;;;;3.38;3.17;;;;;;;;;;4974095;28;20089;-73
2021/11/15 01:36:55;;;;;;;3.20;3.00;;;;;;;;;;4974721;28;20051;-73
2021/11/15 01:39:22;;;;;;;3.60;3.25;;;;;;;;;;4975293;28;20047;-73
2021/11/15 01:41:49;;;;;;;3.33;3.22;;;;;;;;;;4954960;28;20052;-76
2021/11/15 01:44:14;;;;;;;3.33;3.13;;;;;;;;;;4937233;29;20040;-72
2021/11/15 01:46:40;;;;;;;3.20;3.08;;;;;;;;;;4936843;29;20036;-73
2021/11/15 01:49:06;;;;;;;3.13;2.95;;;;;;;;;;4936857;29;20047;-73
2021/11/15 01:51:32;;;;;;;3.47;3.05;;;;;;;;;;4936765;29;20040;-73
2021/11/15 01:53:58;;;;;;;4.63;3.70;;;;;;;;;;4936691;29;20509;-73
2021/11/15 01:56:24;;;;;;;3.50;3.40;;;;;;;;;;4936445;29;20051;-74
2021/11/15 01:58:49;;;;;;;3.88;3.67;;;;;;;;;;4936708;29;20098;-73
2021/11/15 02:01:15;;;;;;;3.25;3.10;;;;;;;;;;4936850;29;20047;-74
2021/11/15 02:03:40;;;;;;;6.50;3.58;;;;;;;;;;4936542;29;20126;-72
2021/11/15 02:06:06;;;;;;;4.72;4.32;;;;;;;;;;4936457;29;20126;-72
2021/11/15 02:08:32;;;;;;;3.63;3.42;;;;;;;;;;4936661;29;20043;-73
2021/11/15 02:10:57;;;;;;;3.30;2.95;;;;;;;;;;4936250;29;20107;-73
2021/11/15 02:13:24;;;;;;;3.85;3.60;;;;;;;;;;4935809;29;20553;-73
2021/11/15 02:15:53;;;;;;;2.15;2.05;;;;;;;;;;4936363;29;20413;-73
2021/11/15 02:18:20;;;;;;;5.82;5.43;;;;;;;;;;4936432;29;20052;-73
2021/11/15 02:20:49;;;;;;;3.55;3.35;;;;;;;;;;4936057;29;20123;-73
2021/11/15 02:23:16;;;;;;;3.63;3.42;;;;;;;;;;4936256;29;20111;-73
2021/11/15 02:25:43;;;;;;;3.53;3.35;;;;;;;;;;4936154;29;20520;-72
2021/11/15 02:28:08;;;;;;;4.43;3.75;;;;;;;;;;4936037;29;20044;-72
2021/11/15 02:30:34;;;;;;;3.20;3.10;;;;;;;;;;4936032;29;20110;-73
2021/11/15 02:33:01;;;;;;;3.20;3.10;;;;;;;;;;4935853;29;20424;-72
2021/11/15 02:35:26;;;;;;;3.25;3.08;;;;;;;;;;4936276;29;20047;-73
2021/11/15 02:37:52;;;;;;;3.15;2.95;;;;;;;;;;4935761;29;20501;-73
2021/11/15 02:40:21;;;;;;;4.05;3.75;;;;;;;;;;4935900;29;20043;-73
2021/11/15 02:42:47;;;;;;;4.03;3.60;;;;;;;;;;4934715;29;20056;-73
2021/11/15 02:45:15;;;;;;;3.25;3.08;;;;;;;;;;4936112;29;20040;-73
2021/11/15 02:47:40;;;;;;;3.55;3.35;;;;;;;;;;4935609;29;20047;-73
2021/11/15 02:50:07;;;;;;;3.33;3.13;;;;;;;;;;4935577;29;20059;-74
2021/11/15 02:52:34;;;;;;;3.35;3.08;;;;;;;;;;4935793;29;20040;-74
2021/11/15 02:54:59;;;;;;;3.20;3.00;;;;;;;;;;4935562;29;20366;-72
2021/11/15 02:57:27;;;;;;;3.75;3.55;;;;;;;;;;4935586;29;20058;-73
2021/11/15 02:59:53;;;;;;;3.53;3.25;;;;;;;;;;4935692;29;20042;-74
2021/11/15 03:02:23;;;;;;;5.70;5.40;;;;;;;;;;4935597;29;20147;-73
2021/11/15 03:04:49;;;;;;;4.30;4.10;;;;;;;;;;4935631;29;20501;-74
2021/11/15 03:07:14;;;;;;;4.55;4.32;;;;;;;;;;4935294;29;20048;-74
2021/11/15 03:09:40;;;;;;;3.70;3.50;;;;;;;;;;4935577;29;20097;-73
2021/11/15 03:12:09;;;;;;;4.05;3.75;;;;;;;;;;4934154;29;20051;-73
2021/11/15 03:14:35;;;;;;;7.32;3.88;;;;;;;;;;4935172;29;20042;-72
2021/11/15 03:17:01;;;;;;;5.63;5.05;;;;;;;;;;4935021;29;20458;-72
2021/11/15 03:19:27;;;;;;;3.80;3.60;;;;;;;;;;4935316;29;20062;-73
2021/11/15 03:21:52;;;;;;;3.50;3.30;;;;;;;;;;4934981;29;20099;-73
2021/11/15 03:24:18;;;;;;;4.18;3.88;;;;;;;;;;4935340;29;20501;-72
2021/11/15 03:26:43;;;;;;;3.55;3.35;;;;;;;;;;4935298;29;20040;-73
2021/11/15 03:29:09;;;;;;;2.35;2.15;;;;;;;;;;4935197;29;20397;-72
2021/11/15 03:31:35;;;;;;;36.25;5.60;;;;;;;;;;4934382;29;20047;-73
2021/11/15 03:34:05;;;;;;;14.52;6.80;;;;;;;;;;4934745;29;20439;-74
2021/11/15 03:36:31;;;;;;;4.07;3.20;;;;;;;;;;4935012;29;20047;-74
2021/11/15 03:38:58;;;;;;;7.65;3.50;;;;;;;;;;4933632;29;20043;-74
2021/11/15 03:41:27;;;;;;;3.78;3.55;;;;;;;;;;4934752;29;20134;-75
2021/11/15 03:43:53;;;;;;;3.22;3.08;;;;;;;;;;4934847;29;20047;-74
2021/11/15 03:46:20;;;;;;;4.28;3.80;;;;;;;;;;4934872;29;20047;-75
2021/11/15 03:48:46;;;;;;;3.90;3.65;;;;;;;;;;4934698;29;20075;-74
2021/11/15 03:51:12;;;;;;;4.05;3.85;;;;;;;;;;4933420;29;20055;-74
2021/11/15 03:53:39;;;;;;;5.40;3.78;;;;;;;;;;4934601;29;20712;-75
2021/11/15 03:56:11;;;;;;;7.25;4.22;;;;;;;;;;4934586;29;20075;-74
2021/11/15 03:58:39;;;;;;;3.63;3.42;;;;;;;;;;4934300;29;20868;-75
2021/11/15 04:01:05;;;;;;;3.28;3.08;;;;;;;;;;4934387;29;20568;-74
2021/11/15 04:03:36;;;;;;;4.78;4.20;;;;;;;;;;4934052;29;20044;-74
2021/11/15 04:06:22;;;;;;;4.20;3.45;;;;;;;;;;4933158;29;20035;-73
2021/11/15 04:08:48;;;;;;;7.00;3.80;;;;;;;;;;4934050;29;20081;-74
2021/11/15 04:11:18;;;;;;;3.33;3.15;;;;;;;;;;4934389;29;20413;-73
2021/11/15 04:13:47;;;;;;;4.43;3.92;;;;;;;;;;4916577;29;20053;-72
2021/11/15 04:16:15;;;;;;;6.20;3.88;;;;;;;;;;4932999;29;20036;-73
2021/11/15 04:18:46;;;;;;;5.20;3.53;;;;;;;;;;4932616;29;20516;-74
2021/11/15 04:21:14;;;;;;;12.90;4.28;;;;;;;;;;4933944;29;20043;-74
2021/11/15 04:23:40;;;;;;;4.38;3.97;;;;;;;;;;4934010;29;20051;-74
2021/11/15 04:26:07;;;;;;;4.07;3.65;;;;;;;;;;4933968;29;20047;-73
2021/11/15 04:28:33;;;;;;;4.53;3.85;;;;;;;;;;4933214;29;20051;-74
2021/11/15 04:30:59;;;;;;;7.13;4.32;;;;;;;;;;4933318;29;20097;-75
2021/11/15 04:33:24;;;;;;;4.47;3.78;;;;;;;;;;4916821;29;20051;-73
2021/11/15 04:35:51;;;;;;;5.75;4.53;;;;;;;;;;4934086;29;20095;-73
2021/11/15 04:38:16;;;;;;;4.80;3.78;;;;;;;;;;4934086;29;20075;-73
2021/11/15 04:40:42;;;;;;;8.73;4.18;;;;;;;;;;4933909;29;20079;-75
2021/11/15 04:43:07;;;;;;;10.27;3.80;;;;;;;;;;4933151;29;20114;-74
2021/11/15 04:45:33;;;;;;;5.80;4.15;;;;;;;;;;4933608;29;20051;-73
2021/11/15 04:47:59;;;;;;;6.82;5.45;;;;;;;;;;4933312;29;20080;-74
2021/11/15 04:50:24;;;;;;;5.18;4.68;;;;;;;;;;4933360;29;20127;-74
2021/11/15 04:52:50;;;;;;;4.55;4.15;;;;;;;;;;4933306;29;20183;-74
2021/11/15 04:55:18;;;;;;;4.78;4.15;;;;;;;;;;4933533;29;20386;-74
2021/11/15 04:57:45;;;;;;;7.78;4.60;;;;;;;;;;4933657;29;20039;-74
2021/11/15 05:00:17;;;;;;;9.00;4.63;;;;;;;;;;4933591;29;20052;-74
2021/11/15 05:02:42;;;;;;;6.80;4.38;;;;;;;;;;4937321;29;20118;-73
2021/11/15 05:05:08;;;;;;;4.57;4.30;;;;;;;;;;4936206;29;20147;-73
2021/11/15 05:07:34;;;;;;;7.93;7.22;;;;;;;;;;4937117;29;20040;-74
2021/11/15 05:10:00;;;;;;;12.40;5.28;;;;;;;;;;4937115;29;20122;-73
2021/11/15 05:12:25;;;;;;;8.52;5.63;;;;;;;;;;4935969;29;20066;-73
2021/11/15 05:14:51;;;;;;;4.90;4.53;;;;;;;;;;4937065;29;20048;-74
2021/11/15 05:17:16;;;;;;;8.15;5.40;;;;;;;;;;4937359;29;20047;-73
2021/11/15 05:19:43;;;;;;;18.27;5.60;;;;;;;;;;4937349;29;20047;-73
2021/11/15 05:22:09;;;;;;;4.43;4.13;;;;;;;;;;4919958;29;20044;-73
2021/11/15 05:24:35;;;;;;;9.85;5.20;;;;;;;;;;4936711;29;20048;-72
2021/11/15 05:27:00;;;;;;;7.60;4.60;;;;;;;;;;4936764;29;20095;-74
2021/11/15 05:29:26;;;;;;;7.88;4.95;;;;;;;;;;4936961;29;20508;-75
2021/11/15 05:31:51;;;;;;;5.22;4.72;;;;;;;;;;4936598;29;20095;-73
2021/11/15 05:34:17;;;;;;;6.55;5.57;;;;;;;;;;4936935;29;20044;-73
2021/11/15 05:36:42;;;;;;;4.90;4.45;;;;;;;;;;4936822;29;20579;-74
2021/11/15 05:39:08;;;;;;;4.93;4.53;;;;;;;;;;4936639;29;20836;-73
2021/11/15 05:41:33;;;;;;;4.88;4.43;;;;;;;;;;4935720;29;20051;-74
2021/11/15 05:43:59;;;;;;;8.27;4.93;;;;;;;;;;4936540;29;20050;-74
2021/11/15 05:46:24;;;;;;;8.23;5.90;;;;;;;;;;4936490;29;20485;-74
2021/11/15 05:48:50;;;;;;;6.40;5.13;;;;;;;;;;4936727;29;20046;-73
2021/11/15 05:51:15;;;;;;;7.97;6.22;;;;;;;;;;4919820;29;20484;-74
2021/11/15 05:53:45;;;;;;;7.45;4.95;;;;;;;;;;4928618;29;20044;-73
2021/11/15 05:56:11;;;;;;;12.13;5.20;;;;;;;;;;4919301;29;20071;-73
2021/11/15 05:58:37;;;;;;;6.35;4.97;;;;;;;;;;4936416;29;20123;-73
2021/11/15 06:01:03;;;;;;;5.28;4.88;;;;;;;;;;4936604;29;20417;-74
2021/11/15 06:03:29;;;;;;;5.28;4.88;;;;;;;;;;4936557;29;20056;-72
2021/11/15 06:05:54;;;;;;;5.97;4.18;;;;;;;;;;4936299;29;20418;-76
2021/11/15 06:08:20;;;;;;;6.78;6.18;;;;;;;;;;4936448;29;20425;-74
2021/11/15 06:10:45;;;;;;;7.22;5.85;;;;;;;;;;4936812;29;20394;-72
2021/11/15 06:13:11;;;;;;;5.30;4.80;;;;;;;;;;4935018;29;20066;-74
2021/11/15 06:15:37;;;;;;;5.78;5.30;;;;;;;;;;4935793;29;20283;-73
2021/11/15 06:18:02;;;;;;;6.65;5.22;;;;;;;;;;4935769;29;20074;-74
2021/11/15 06:20:28;;;;;;;5.57;5.10;;;;;;;;;;4936135;29;20043;-73
2021/11/15 06:22:54;;;;;;;6.45;5.90;;;;;;;;;;4935621;29;20115;-74
2021/11/15 06:25:20;;;;;;;7.80;6.07;;;;;;;;;;4935822;29;20072;-74
2021/11/15 06:27:46;;;;;;;5.70;5.20;;;;;;;;;;4936421;29;20039;-72
2021/11/15 06:30:15;;;;;;;11.05;5.70;;;;;;;;;;4935827;29;20055;-72
2021/11/15 06:32:42;;;;;;;6.38;5.88;;;;;;;;;;4918475;29;20390;-72
2021/11/15 06:35:09;;;;;;;8.95;5.50;;;;;;;;;;4935901;29;20901;-72
2021/11/15 06:37:35;;;;;;;5.28;4.78;;;;;;;;;;4935331;29;20520;-74
2021/11/15 06:40:00;;;;;;;5.32;4.93;;;;;;;;;;4935650;29;20048;-72
2021/11/15 06:42:26;;;;;;;5.97;5.47;;;;;;;;;;4935145;29;20043;-73
2021/11/15 06:44:52;;;;;;;11.25;7.93;;;;;;;;;;4935603;29;20043;-72
2021/11/15 06:47:18;;;;;;;7.03;6.10;;;;;;;;;;4935746;29;20058;-73
2021/11/15 06:49:44;;;;;;;6.32;5.50;;;;;;;;;;4935516;29;20074;-73
2021/11/15 06:52:09;;;;;;;8.23;7.63;;;;;;;;;;4935374;29;20469;-75
2021/11/15 06:54:35;;;;;;;5.30;4.90;;;;;;;;;;4935367;29;20055;-73
2021/11/15 06:57:00;;;;;;;6.97;5.68;;;;;;;;;;4935295;29;20490;-73
2021/11/15 06:59:27;;;;;;;6.35;5.85;;;;;;;;;;4935273;29;20040;-73
2021/11/15 07:01:52;;;;;;;5.88;5.35;;;;;;;;;;4935321;29;20047;-73
2021/11/15 07:04:18;;;;;;;8.73;6.75;;;;;;;;;;4935397;29;20039;-73
2021/11/15 07:06:43;;;;;;;5.97;5.32;;;;;;;;;;4935484;29;20040;-73
2021/11/15 07:09:10;;;;;;;11.02;8.30;;;;;;;;;;4935423;29;20421;-73
2021/11/15 07:11:36;;;;;;;6.10;5.57;;;;;;;;;;4935001;29;20509;-72
2021/11/15 07:14:03;;;;;;;8.73;6.57;;;;;;;;;;4934628;29;20107;-73
2021/11/15 07:16:29;;;;;;;10.48;5.70;;;;;;;;;;4934855;29;20409;-73
2021/11/15 07:18:54;;;;;;;7.00;6.18;;;;;;;;;;4935227;29;20039;-71
2021/11/15 07:21:22;;;;;;;6.80;6.03;;;;;;;;;;4934947;29;20044;-72
2021/11/15 07:23:48;;;;;;;9.63;5.93;;;;;;;;;;4934678;29;20044;-74
2021/11/15 07:26:15;;;;;;;13.25;7.20;;;;;;;;;;4933581;29;20079;-72
2021/11/15 07:28:42;;;;;;;9.35;7.70;;;;;;;;;;4934820;29;20044;-73
2021/11/15 07:31:08;;;;;;;9.75;5.63;;;;;;;;;;4934915;29;20799;-73
2021/11/15 07:33:33;;;;;;;6.13;4.50;;;;;;;;;;4934460;29;20413;-73
2021/11/15 07:35:59;;;;;;;6.28;5.68;;;;;;;;;;4934698;29;20048;-73
2021/11/15 07:38:24;;;;;;;6.28;5.78;;;;;;;;;;4934554;29;20048;-74
2021/11/15 07:40:50;;;;;;;7.65;6.63;;;;;;;;;;4934408;29;20040;-73
2021/11/15 07:43:17;;;;;;;6.28;5.68;;;;;;;;;;4934501;28;20040;-73
2021/11/15 07:45:43;;;;;;;10.90;6.03;;;;;;;;;;4956140;28;20125;-73
2021/11/15 07:48:08;;;;;;;10.02;6.93;;;;;;;;;;4952701;29;20047;-73
2021/11/15 07:50:35;;;;;;;12.57;6.85;;;;;;;;;;4965185;28;20039;-74
2021/11/15 07:53:01;;;;;;;8.93;6.60;;;;;;;;;;4955090;28;20054;-73
2021/11/15 07:55:26;;;;;;;8.77;6.25;;;;;;;;;;4972784;28;20038;-72
2021/11/15 07:57:52;;;;;;;13.48;7.53;;;;;;;;;;4971887;28;20074;-74
2021/11/15 08:00:21;;;;;;;8.68;6.97;;;;;;;;;;4973174;28;20046;-73
2021/11/15 08:02:47;;;;;;;7.22;6.35;;;;;;;;;;4972892;28;20500;-73
2021/11/15 08:05:14;;;;;;;7.63;6.78;;;;;;;;;;4969849;28;20136;-74
2021/11/15 08:07:40;;;;;;;7.63;6.50;;;;;;;;;;4972361;28;20045;-74
2021/11/15 08:10:09;;;;;;;7.40;6.50;;;;;;;;;;4972824;28;20047;-73
2021/11/15 08:12:38;;;;;;;10.70;6.70;;;;;;;;;;4971637;28;20038;-74
2021/11/15 08:15:07;;;;;;;6.95;5.53;;;;;;;;;;4971101;28;20463;-73
2021/11/15 08:17:35;;;;;;;8.77;7.20;;;;;;;;;;4954481;28;20445;-75
2021/11/15 08:20:01;;;;;;;8.50;5.47;;;;;;;;;;4971211;28;20065;-74
2021/11/15 08:22:26;;;;;;;7.38;6.13;;;;;;;;;;4972134;28;20054;-74
2021/11/15 08:25:14;;;;;;;6.80;6.05;;;;;;;;;;4972215;28;20152;-73
2021/11/15 08:27:39;;;;;;;6.35;5.63;;;;;;;;;;4969539;28;20046;-74
2021/11/15 08:30:05;;;;;;;7.13;6.38;;;;;;;;;;4972006;28;20384;-74
2021/11/15 08:32:31;;;;;;;6.25;5.68;;;;;;;;;;4971780;28;20038;-74
2021/11/15 08:34:59;;;;;;;5.95;5.43;;;;;;;;;;4971230;28;20121;-74
2021/11/15 08:37:25;;;;;;;7.63;5.10;;;;;;;;;;4970586;28;20495;-74
2021/11/15 08:39:50;;;;;;;5.20;4.70;;;;;;;;;;4971808;28;20420;-75
2021/11/15 08:42:16;;;;;;;6.10;5.60;;;;;;;;;;4971511;28;20043;-75
2021/11/15 08:44:51;;;;;;;6.28;3.65;;;;;;;;;;4971797;28;20415;-74
2021/11/15 08:47:16;;;;;;;6.95;4.55;;;;;;;;;;4971767;28;20053;-75
2021/11/15 08:49:42;;;;;;;4.13;3.83;;;;;;;;;;4968597;28;20397;-74
2021/11/15 08:52:07;;;;;;;4.32;3.95;;;;;;;;;;4971578;28;20035;-74
2021/11/15 08:54:33;;;;;;;4.85;4.47;;;;;;;;;;4971489;28;20126;-75
2021/11/15 08:57:02;;;;;;;6.32;5.93;;;;;;;;;;4971187;28;20046;-74
2021/11/15 08:59:28;;;;;;;4.88;4.55;;;;;;;;;;4971728;28;20109;-74
2021/11/15 09:01:55;;;;;;;4.20;3.80;;;;;;;;;;4971344;28;20067;-74
2021/11/15 09:04:21;;;;;;;5.47;4.53;;;;;;;;;;4971224;28;20117;-72
2021/11/15 09:06:47;;;;;;;5.50;4.80;;;;;;;;;;4971680;28;20496;-74
2021/11/15 09:09:16;;;;;;;5.40;4.90;;;;;;;;;;4971582;28;20065;-74
2021/11/15 09:11:48;;;;;;;5.10;4.55;;;;;;;;;;4969780;28;20046;-74
2021/11/15 09:14:14;;;;;;;5.80;5.10;;;;;;;;;;4971611;28;20046;-73
2021/11/15 09:16:42;;;;;;;5.18;4.72;;;;;;;;;;4971507;28;20039;-73
2021/11/15 09:19:08;;;;;;;5.38;4.88;;;;;;;;;;4970843;28;20106;-74
2021/11/15 09:21:33;;;;;;;5.90;4.78;;;;;;;;;;4970825;28;20051;-74
2021/11/15 09:23:59;;;;;;;5.18;4.75;;;;;;;;;;4971214;28;20053;-74
2021/11/15 09:26:27;;;;;;;5.43;3.90;;;;;;;;;;4971559;28;20423;-74
2021/11/15 09:28:55;;;;;;;5.20;4.70;;;;;;;;;;4953566;28;20039;-73
2021/11/15 09:31:21;;;;;;;5.10;4.70;;;;;;;;;;4971000;28;20046;-73
2021/11/15 09:33:47;;;;;;;5.00;4.60;;;;;;;;;;4969456;28;20054;-74
2021/11/15 09:36:12;;;;;;;7.25;4.60;;;;;;;;;;4971001;28;20043;-73
2021/11/15 09:38:39;;;;;;;5.47;5.07;;;;;;;;;;4970959;28;20043;-73
2021/11/15 09:41:06;;;;;;;7.00;5.63;;;;;;;;;;4969828;28;20043;-73
2021/11/15 09:43:35;;;;;;;6.35;4.57;;;;;;;;;;4970688;28;20058;-73
2021/11/15 09:46:12;;;;;;;7.03;5.35;;;;;;;;;;4954098;28;20257;-72
2021/11/15 09:48:41;;;;;;;6.15;5.18;;;;;;;;;;4973424;28;20055;-73
2021/11/15 09:51:08;;;;;;;11.23;5.68;;;;;;;;;;4956918;28;20189;-73
2021/11/15 09:53:35;;;;;;;7.20;5.20;;;;;;;;;;4974811;28;20051;-74
2021/11/15 09:56:01;;;;;;;7.40;5.55;;;;;;;;;;4972252;28;20043;-73
2021/11/15 09:58:27;;;;;;;7.75;5.85;;;;;;;;;;4956458;28;20065;-73
2021/11/15 10:00:52;;;;;;;7.97;5.55;;;;;;;;;;4974748;28;20042;-74
2021/11/15 10:03:18;;;;;;;8.07;6.00;;;;;;;;;;4974466;28;20042;-73
2021/11/15 10:05:45;;;;;;;11.77;6.53;;;;;;;;;;4973981;28;20042;-72
2021/11/15 10:08:12;;;;;;;6.65;6.15;;;;;;;;;;4974472;28;20126;-74
2021/11/15 10:10:55;;;;;;;6.07;5.50;;;;;;;;;;4957303;28;20047;-75
2021/11/15 10:13:20;;;;;;;6.65;6.05;;;;;;;;;;4972799;28;20186;-73
2021/11/15 10:15:53;;;;;;;6.93;6.32;;;;;;;;;;4972262;28;20121;-73
2021/11/15 10:18:45;;;;;;;6.70;6.10;;;;;;;;;;4973736;28;20049;-75
2021/11/15 10:21:13;;;;;;;6.65;6.15;;;;;;;;;;4974390;28;20161;-75
2021/11/15 10:23:57;;;;;;;7.50;5.45;;;;;;;;;;4974402;28;20121;-74
2021/11/15 10:26:28;;;;;;;5.55;5.05;;;;;;;;;;4955997;28;20043;-74
2021/11/15 10:28:58;;;;;;;6.57;5.97;;;;;;;;;;4974440;28;20062;-74
2021/11/15 10:31:29;;;;;;;8.77;6.85;;;;;;;;;;4973988;28;20039;-73
2021/11/15 10:33:55;;;;;;;5.97;5.47;;;;;;;;;;4955780;28;20047;-75
2021/11/15 10:36:43;;;;;;;6.00;5.40;;;;;;;;;;4957032;28;20057;-74
2021/11/15 10:39:09;;;;;;;;;;;;;;;;;;4972263;28;20038;-74
2021/11/15 10:41:34;;;;;;;5.63;5.20;;;;;;;;;;4973342;28;19940;-73
2021/11/15 10:44:00;;;;;;;5.22;4.93;;;;;;;;;;4973777;28;20135;-73
2021/11/15 10:46:37;;;;;;;6.18;4.85;;;;;;;;;;4973543;28;20038;-73
2021/11/15 10:49:05;;;;;;;6.22;5.53;;;;;;;;;;4973082;28;20046;-73
2021/11/15 10:51:50;;;;;;;6.93;6.13;;;;;;;;;;4974054;28;20073;-73
2021/11/15 10:57:36;;;;;;;5.10;4.60;;;;;;;;;;4973602;28;20038;-75
2021/11/15 11:00:05;;;;;;;8.20;4.68;;;;;;;;;;4950912;28;20069;-75
2021/11/15 11:02:32;;;;;;;6.18;5.35;;;;;;;;;;4956433;28;20070;-74
2021/11/15 11:05:13;;;;;;;4.75;4.45;;;;;;;;;;4973313;28;20074;-74
2021/11/15 11:07:40;;;;;;;4.60;4.15;;;;;;;;;;4973574;28;20100;-74
2021/11/15 11:10:11;;;;;;;4.38;4.07;;;;;;;;;;4973405;28;20050;-73
2021/11/15 11:12:42;;;;;;;5.65;5.10;;;;;;;;;;4973346;28;20043;-74
2021/11/15 11:15:33;;;;;;;5.18;4.22;;;;;;;;;;4972938;28;20585;-74
2021/11/15 11:17:58;;;;;;;5.32;4.85;;;;;;;;;;4972731;28;20050;-74
2021/11/15 11:20:48;;;;;;;5.70;5.20;;;;;;;;;;4972857;28;20047;-74
2021/11/15 11:23:23;;;;;;;4.63;4.35;;;;;;;;;;4970531;28;20063;-74
2021/11/15 11:25:49;;;;;;;5.70;3.92;;;;;;;;;;4972436;28;20054;-74
2021/11/15 11:28:50;;;;;;;5.07;4.50;;;;;;;;;;4972015;28;20034;-75
2021/11/15 11:31:16;;;;;;;5.05;4.53;;;;;;;;;;4955870;28;20096;-74
2021/11/15 11:33:43;;;;;;;5.05;4.63;;;;;;;;;;4972482;28;20046;-74
2021/11/15 11:36:10;;;;;;;4.40;3.72;;;;;;;;;;4973014;28;20043;-75
2021/11/15 11:38:37;;;;;;;6.15;4.00;;;;;;;;;;4973300;28;20825;-74
2021/11/15 11:41:03;;;;;;;6.00;3.92;;;;;;;;;;4972095;28;20053;-74
2021/11/15 11:43:29;;;;;;;4.72;3.85;;;;;;;;;;4970260;28;20047;-76
2021/11/15 11:45:54;;;;;;;4.30;3.90;;;;;;;;;;4972452;28;20051;-75
2021/11/15 11:48:20;;;;;;;4.30;4.00;;;;;;;;;;4972040;28;20054;-74
2021/11/15 11:50:48;;;;;;;3.92;2.35;;;;;;;;;;4955069;28;20487;-74
2021/11/15 11:53:21;;;;;;;4.25;3.85;;;;;;;;;;4972514;28;20049;-75
2021/11/15 11:55:48;;;;;;;4.53;4.15;;;;;;;;;;4954713;28;20047;-74
2021/11/15 11:58:32;;;;;;;3.78;3.53;;;;;;;;;;4972660;28;20047;-74
2021/11/15 12:01:00;;;;;;;6.20;4.50;;;;;;;;;;4955235;28;20074;-74
2021/11/15 12:03:27;;;;;;;4.57;4.07;;;;;;;;;;4971575;28;20125;-74
2021/11/15 12:05:54;;;;;;;6.03;3.45;;;;;;;;;;4970106;28;20058;-74
2021/11/15 12:08:52;;;;;;;4.00;3.70;;;;;;;;;;4971888;28;20049;-74
2021/11/15 12:11:25;;;;;;;3.58;3.38;;;;;;;;;;4953595;28;20047;-75
2021/11/15 12:13:51;;;;;;;3.20;3.00;;;;;;;;;;4972079;28;20038;-75
2021/11/15 12:16:17;;;;;;;3.35;3.17;;;;;;;;;;4972110;28;20415;-75
2021/11/15 12:19:00;;;;;;;4.15;3.85;;;;;;;;;;4971872;28;20045;-74
2021/11/15 12:21:37;;;;;;;6.07;4.05;;;;;;;;;;4972387;28;20050;-74
2021/11/15 12:24:15;;;;;;;5.18;3.70;;;;;;;;;;4971523;28;20061;-74
2021/11/15 12:26:46;;;;;;;4.03;3.83;;;;;;;;;;4960379;28;20051;-73
2021/11/15 12:29:30;;;;;;;3.80;3.60;;;;;;;;;;4953188;29;20086;-74
2021/11/15 12:32:13;;;;;;;3.78;2.65;;;;;;;;;;4952624;29;20405;-73
2021/11/15 12:34:57;;;;;;;4.10;3.78;;;;;;;;;;4952751;29;20517;-74
2021/11/15 12:37:38;;;;;;;4.28;3.40;;;;;;;;;;4935353;29;20039;-73
2021/11/15 12:40:06;;;;;;;4.40;3.92;;;;;;;;;;4935248;29;20050;-73
2021/11/15 12:42:32;;;;;;;4.50;4.13;;;;;;;;;;4952515;29;20057;-74
2021/11/15 12:45:11;;;;;;;4.20;3.83;;;;;;;;;;4953041;28;20042;-75
2021/11/15 12:47:44;;;;;;;4.70;4.40;;;;;;;;;;4952712;29;20067;-73
2021/11/15 12:50:19;;;;;;;7.88;3.97;;;;;;;;;;4952583;29;20559;-73
2021/11/15 12:52:52;;;;;;;4.35;3.95;;;;;;;;;;4952516;29;20039;-73
2021/11/15 12:55:18;;;;;;;5.00;4.28;;;;;;;;;;4952592;29;20366;-73
2021/11/15 12:57:50;;;;;;;4.10;3.67;;;;;;;;;;4952921;29;20475;-72
2021/11/15 13:00:19;;;;;;;4.25;3.85;;;;;;;;;;4952941;29;20058;-74
2021/11/15 13:02:50;;;;;;;4.68;3.58;;;;;;;;;;4952919;29;20044;-73
2021/11/15 13:05:15;;;;;;;7.90;5.00;;;;;;;;;;4952637;29;20094;-73
2021/11/15 13:07:41;;;;;;;4.25;3.95;;;;;;;;;;4952603;29;20065;-74
2021/11/15 13:10:08;;;;;;;6.22;3.88;;;;;;;;;;4952421;29;20051;-73
2021/11/15 13:12:36;;;;;;;4.53;4.07;;;;;;;;;;4952360;29;20109;-73
2021/11/15 13:15:06;;;;;;;5.97;4.43;;;;;;;;;;4935532;29;20044;-73
2021/11/15 13:17:33;;;;;;;5.47;4.97;;;;;;;;;;4952548;29;20071;-73
2021/11/15 13:20:03;;;;;;;5.30;4.70;;;;;;;;;;4952366;29;20051;-72
2021/11/15 13:22:29;;;;;;;4.88;4.10;;;;;;;;;;4951371;28;20066;-73
2021/11/15 13:24:55;;;;;;;10.25;4.13;;;;;;;;;;4956534;29;20047;-74
2021/11/15 13:27:24;;;;;;;6.70;4.38;;;;;;;;;;4955959;29;20097;-75
2021/11/15 13:29:49;;;;;;;6.70;4.03;;;;;;;;;;4956228;29;20102;-74
2021/11/15 13:32:16;;;;;;;4.43;4.10;;;;;;;;;;4956090;29;20424;-73
2021/11/15 13:34:46;;;;;;;6.40;4.63;;;;;;;;;;4956246;29;20039;-73
2021/11/15 13:37:13;;;;;;;7.93;4.50;;;;;;;;;;4955855;29;20039;-74
2021/11/15 13:39:39;;;;;;;4.68;4.15;;;;;;;;;;4955602;29;20038;-73
2021/11/15 13:42:07;;;;;;;6.60;4.38;;;;;;;;;;4955688;29;20571;-73
2021/11/15 13:44:33;;;;;;;7.97;4.45;;;;;;;;;;4954719;29;20099;-73
2021/11/15 13:46:58;;;;;;;6.75;4.32;;;;;;;;;;4955477;29;20075;-72
2021/11/15 13:49:28;;;;;;;5.13;4.53;;;;;;;;;;4956103;29;20047;-73
2021/11/15 13:51:54;;;;;;;4.68;4.10;;;;;;;;;;4938403;29;20134;-72
2021/11/15 13:54:19;;;;;;;5.43;4.95;;;;;;;;;;4955553;29;20122;-73
2021/11/15 13:56:45;;;;;;;6.97;4.88;;;;;;;;;;4955849;29;20126;-73
2021/11/15 13:59:11;;;;;;;7.38;6.70;;;;;;;;;;4955482;29;20066;-72
2021/11/15 14:01:38;;;;;;;6.28;5.68;;;;;;;;;;4954375;28;20051;-72
2021/11/15 14:04:03;;;;;;;7.35;5.75;;;;;;;;;;4955508;29;20043;-72
2021/11/15 14:06:29;;;;;;;11.73;6.75;;;;;;;;;;4955279;29;20388;-73
2021/11/15 14:08:57;;;;;;;10.13;7.10;;;;;;;;;;4955513;29;20051;-73
2021/11/15 14:11:22;;;;;;;6.97;5.82;;;;;;;;;;4955380;29;20043;-73
2021/11/15 14:13:49;;;;;;;6.88;6.13;;;;;;;;;;4937725;29;20050;-74
2021/11/15 14:16:14;;;;;;;9.38;6.15;;;;;;;;;;4955543;29;20035;-72
2021/11/15 14:18:39;;;;;;;8.00;5.97;;;;;;;;;;4938098;29;20058;-73
2021/11/15 14:21:05;;;;;;;11.43;5.03;;;;;;;;;;4954959;29;20429;-72
2021/11/15 14:23:33;;;;;;;7.55;5.80;;;;;;;;;;4954935;29;20042;-73
2021/11/15 14:25:59;;;;;;;7.03;5.97;;;;;;;;;;4954585;29;20523;-73
2021/11/15 14:28:25;;;;;;;8.55;5.32;;;;;;;;;;4937322;29;20039;-72
2021/11/15 14:30:50;;;;;;;7.03;6.32;;;;;;;;;;4955113;29;20043;-74
2021/11/15 14:33:16;;;;;;;6.20;5.20;;;;;;;;;;4937330;28;20043;-73
2021/11/15 14:35:42;;;;;;;5.97;5.38;;;;;;;;;;4955312;29;20043;-73
2021/11/15 14:38:08;;;;;;;6.53;5.53;;;;;;;;;;4955236;29;20063;-73
2021/11/15 14:40:34;;;;;;;7.32;4.45;;;;;;;;;;4954766;29;20079;-73
2021/11/15 14:42:59;;;;;;;6.88;5.25;;;;;;;;;;4937662;29;20094;-75
2021/11/15 14:45:25;;;;;;;7.68;6.32;;;;;;;;;;4953685;29;20083;-76
2021/11/15 14:47:52;;;;;;;7.22;5.10;;;;;;;;;;4937579;29;20173;-72
2021/11/15 14:50:18;;;;;;;13.93;6.78;;;;;;;;;;4954767;29;20039;-73